Time;durP1;ratioP1;P1;durP2;ratioP2;P2;SDS_P1;SDS_P2;PMS_P1;PMS_P2;Temp;Humidity;BMP_temperature;BMP_pressure;BME280_temperature;BME280_humidity;BME280_pressure;Samples;Min_cycle;Max_cycle;Signal;HPM_P1;HPM_P2
2022/09/06 00:01:11;;;;;;;;;2.00;2.00;;;;;;;;5075864;27;45636;-74
2022/09/06 00:03:36;;;;;;;;;2.00;2.00;;;;;;;;5075732;27;45436;-73
2022/09/06 00:06:09;;;;;;;;;2.00;2.00;;;;;;;;5076117;27;45464;-75
2022/09/06 00:08:34;;;;;;;;;1.00;1.00;;;;;;;;5075352;27;46448;-74
2022/09/06 00:10:59;;;;;;;;;2.33;2.33;;;;;;;;5074894;28;45308;-74
2022/09/06 00:13:24;;;;;;;;;4.00;3.00;;;;;;;;5076104;28;45256;-74
2022/09/06 00:15:50;;;;;;;;;3.00;2.00;;;;;;;;5075866;27;45306;-75
2022/09/06 00:18:16;;;;;;;;;1.00;1.00;;;;;;;;5075773;27;46001;-74
2022/09/06 00:20:41;;;;;;;;;2.00;2.00;;;;;;;;5075778;27;45388;-74
2022/09/06 00:23:06;;;;;;;;;2.33;2.00;;;;;;;;5075389;28;45308;-75
2022/09/06 00:25:32;;;;;;;;;2.67;2.00;;;;;;;;5075806;27;45474;-74
2022/09/06 00:28:02;;;;;;;;;1.67;1.67;;;;;;;;5075219;27;45259;-75
2022/09/06 00:30:28;;;;;;;;;2.00;2.00;;;;;;;;5075690;28;45621;-75
2022/09/06 00:32:53;;;;;;;;;2.00;2.00;;;;;;;;5075606;28;45455;-74
2022/09/06 00:35:19;;;;;;;;;2.00;2.00;;;;;;;;5075512;27;45780;-74
2022/09/06 00:37:44;;;;;;;;;1.00;1.00;;;;;;;;5074982;27;45812;-74
2022/09/06 00:40:10;;;;;;;;;2.00;2.00;;;;;;;;5075428;28;45519;-74
2022/09/06 00:42:35;;;;;;;;;2.33;2.33;;;;;;;;5075568;27;45395;-74
2022/09/06 00:45:00;;;;;;;;;2.00;2.00;;;;;;;;5075513;28;45344;-74
2022/09/06 00:47:27;;;;;;;;;2.00;2.00;;;;;;;;5075588;28;45344;-74
2022/09/06 00:49:54;;;;;;;;;2.00;2.00;;;;;;;;5075052;27;45282;-75
2022/09/06 00:52:19;;;;;;;;;2.00;2.00;;;;;;;;5074936;27;45513;-74
2022/09/06 00:54:46;;;;;;;;;1.33;1.33;;;;;;;;5075465;28;45329;-75
2022/09/06 00:57:13;;;;;;;;;3.00;2.00;;;;;;;;5075008;27;46289;-75
2022/09/06 00:59:39;;;;;;;;;4.00;3.00;;;;;;;;5075277;28;45365;-74
2022/09/06 01:02:05;;;;;;;;;2.00;2.00;;;;;;;;5075290;27;45312;-75
2022/09/06 01:04:31;;;;;;;;;2.00;2.00;;;;;;;;5075015;27;45324;-74
2022/09/06 01:07:12;;;;;;;;;1.00;1.00;;;;;;;;5060343;27;45264;-74
2022/09/06 01:09:37;;;;;;;;;2.33;1.33;;;;;;;;5075103;27;45297;-74
2022/09/06 01:12:05;;;;;;;;;2.33;2.00;;;;;;;;5075444;27;45289;-75
2022/09/06 01:14:33;;;;;;;;;2.00;2.00;;;;;;;;5075023;28;45324;-76
2022/09/06 01:17:13;;;;;;;;;2.00;2.00;;;;;;;;5074782;28;45370;-74
2022/09/06 01:20:14;;;;;;;;;2.00;2.00;;;;;;;;5074734;28;45325;-75
2022/09/06 01:23:03;;;;;;;;;2.00;2.00;;;;;;;;5014464;28;45802;-74
2022/09/06 01:25:40;;;;;;;;;3.00;3.00;;;;;;;;5012414;28;45678;-75
2022/09/06 01:28:06;;;;;;;;;1.00;1.00;;;;;;;;5015464;28;46277;-75
2022/09/06 01:30:33;;;;;;;;;2.33;2.00;;;;;;;;5015773;28;45345;-75
2022/09/06 01:33:17;;;;;;;;;1.00;1.00;;;;;;;;5015736;28;45343;-75
2022/09/06 01:35:42;;;;;;;;;2.33;2.00;;;;;;;;5015247;28;45549;-74
2022/09/06 01:38:07;;;;;;;;;1.33;1.33;;;;;;;;5015269;28;47067;-74
2022/09/06 01:40:36;;;;;;;;;2.67;2.67;;;;;;;;5015768;28;45516;-75
2022/09/06 01:43:07;;;;;;;;;2.00;2.00;;;;;;;;5015643;28;45407;-74
2022/09/06 01:45:54;;;;;;;;;2.00;2.00;;;;;;;;5015700;28;45411;-74
2022/09/06 01:48:38;;;;;;;;;2.00;2.00;;;;;;;;5015437;28;45644;-75
2022/09/06 01:51:03;;;;;;;;;2.00;2.00;;;;;;;;5014884;28;45348;-75
2022/09/06 01:53:45;;;;;;;;;1.67;1.67;;;;;;;;5015160;28;45543;-75
2022/09/06 01:56:25;;;;;;;;;1.00;1.00;;;;;;;;5028150;28;45321;-75
2022/09/06 01:58:57;;;;;;;;;2.00;2.00;;;;;;;;5076549;27;46377;-75
2022/09/06 02:01:38;;;;;;;;;2.00;2.00;;;;;;;;5078205;27;45228;-75
2022/09/06 02:04:06;;;;;;;;;2.33;2.33;;;;;;;;5077418;27;45414;-76
2022/09/06 02:06:36;;;;;;;;;2.67;2.67;;;;;;;;5059645;28;45233;-74
2022/09/06 02:09:10;;;;;;;;;3.00;3.00;;;;;;;;5077335;27;47193;-75
2022/09/06 02:11:50;;;;;;;;;2.67;2.00;;;;;;;;5077817;28;45408;-75
2022/09/06 02:14:19;;;;;;;;;2.00;2.00;;;;;;;;5077757;27;45359;-75
2022/09/06 02:16:46;;;;;;;;;2.33;2.33;;;;;;;;5077770;27;45391;-74
2022/09/06 02:19:16;;;;;;;;;2.00;2.00;;;;;;;;5077032;27;45407;-75
2022/09/06 02:21:43;;;;;;;;;1.67;1.00;;;;;;;;5077599;27;45344;-74
2022/09/06 02:24:10;;;;;;;;;2.00;2.00;;;;;;;;5077851;27;45466;-74
2022/09/06 02:26:38;;;;;;;;;3.00;1.00;;;;;;;;5077270;27;45385;-75
2022/09/06 02:29:04;;;;;;;;;2.00;2.00;;;;;;;;5077359;27;45464;-76
2022/09/06 02:31:32;;;;;;;;;1.00;1.00;;;;;;;;5077356;27;45379;-75
2022/09/06 02:33:58;;;;;;;;;1.00;1.00;;;;;;;;5076465;27;45450;-74
2022/09/06 02:36:23;;;;;;;;;2.00;2.00;;;;;;;;5076831;27;45299;-75
2022/09/06 02:38:48;;;;;;;;;3.00;3.00;;;;;;;;5077428;27;46944;-74
2022/09/06 02:41:17;;;;;;;;;1.00;1.00;;;;;;;;5077382;27;45362;-75
2022/09/06 02:43:42;;;;;;;;;3.00;2.33;;;;;;;;5077175;28;45288;-76
2022/09/06 02:46:07;;;;;;;;;1.00;1.00;;;;;;;;5077179;27;45382;-74
2022/09/06 02:48:33;;;;;;;;;1.00;1.00;;;;;;;;5058207;28;47225;-75
2022/09/06 02:51:01;;;;;;;;;3.00;2.00;;;;;;;;5077246;27;45251;-75
2022/09/06 02:53:26;;;;;;;;;1.00;1.00;;;;;;;;5058950;27;45549;-75
2022/09/06 02:55:51;;;;;;;;;2.00;2.00;;;;;;;;5077047;27;45205;-75
2022/09/06 02:58:16;;;;;;;;;2.00;2.00;;;;;;;;5076683;27;45309;-76
2022/09/06 03:00:42;;;;;;;;;3.00;1.33;;;;;;;;5058718;28;45254;-75
2022/09/06 03:03:08;;;;;;;;;2.33;2.33;;;;;;;;5076495;27;45236;-74
2022/09/06 03:05:33;;;;;;;;;1.00;1.00;;;;;;;;5076992;27;45218;-74
2022/09/06 03:07:58;;;;;;;;;3.00;2.00;;;;;;;;5076619;27;45348;-74
2022/09/06 03:10:26;;;;;;;;;2.00;2.00;;;;;;;;5076794;27;45494;-75
2022/09/06 03:12:51;;;;;;;;;2.00;2.00;;;;;;;;5076949;27;45389;-75
2022/09/06 03:15:17;;;;;;;;;2.33;2.33;;;;;;;;5058535;28;45563;-74
2022/09/06 03:17:42;;;;;;;;;2.00;2.00;;;;;;;;5075959;27;45566;-75
2022/09/06 03:20:08;;;;;;;;;1.00;1.00;;;;;;;;5076616;27;45395;-75
2022/09/06 03:22:38;;;;;;;;;2.00;0.00;;;;;;;;5076724;27;45355;-75
2022/09/06 03:25:03;;;;;;;;;1.33;1.33;;;;;;;;5076763;27;45411;-74
2022/09/06 03:27:29;;;;;;;;;1.33;1.33;;;;;;;;5076498;28;46208;-74
2022/09/06 03:29:54;;;;;;;;;2.00;2.00;;;;;;;;5076380;27;45478;-75
2022/09/06 03:32:19;;;;;;;;;2.00;1.67;;;;;;;;5076342;27;45403;-75
2022/09/06 03:34:44;;;;;;;;;2.00;2.00;;;;;;;;5076499;27;45463;-75
2022/09/06 03:37:09;;;;;;;;;1.33;1.00;;;;;;;;5076162;27;47055;-74
2022/09/06 03:39:35;;;;;;;;;1.00;1.00;;;;;;;;5076415;27;45588;-74
2022/09/06 03:42:00;;;;;;;;;1.00;1.00;;;;;;;;5076393;27;45397;-74
2022/09/06 03:44:25;;;;;;;;;2.00;2.00;;;;;;;;5076281;27;45487;-75
2022/09/06 03:46:51;;;;;;;;;2.00;2.00;;;;;;;;5074984;27;45407;-75
2022/09/06 03:49:16;;;;;;;;;1.67;1.67;;;;;;;;5076144;28;45819;-75
2022/09/06 03:51:41;;;;;;;;;2.00;2.00;;;;;;;;5076066;27;45561;-74
2022/09/06 03:54:07;;;;;;;;;1.00;1.00;;;;;;;;5076539;28;45466;-74
2022/09/06 03:56:32;;;;;;;;;2.00;2.00;;;;;;;;5075922;28;47032;-75
2022/09/06 03:58:58;;;;;;;;;2.00;2.00;;;;;;;;5076003;28;45279;-74
2022/09/06 04:01:23;;;;;;;;;1.00;1.00;;;;;;;;5076038;27;45315;-74
2022/09/06 04:03:48;;;;;;;;;3.00;1.67;;;;;;;;5075794;27;45348;-74
2022/09/06 04:06:13;;;;;;;;;1.00;1.00;;;;;;;;5057844;28;46158;-75
2022/09/06 04:08:38;;;;;;;;;2.00;2.00;;;;;;;;5075946;27;45250;-74
2022/09/06 04:11:04;;;;;;;;;2.00;2.00;;;;;;;;5075838;27;45313;-74
2022/09/06 04:13:30;;;;;;;;;2.00;2.00;;;;;;;;5076239;27;45287;-74
2022/09/06 04:15:55;;;;;;;;;1.00;1.00;;;;;;;;5075309;27;45311;-74
2022/09/06 04:18:21;;;;;;;;;2.00;2.00;;;;;;;;5075906;28;45344;-75
2022/09/06 04:20:50;;;;;;;;;1.00;1.00;;;;;;;;5076200;28;45364;-74
2022/09/06 04:23:15;;;;;;;;;1.00;1.00;;;;;;;;5075815;28;45542;-74
2022/09/06 04:25:44;;;;;;;;;2.00;2.00;;;;;;;;5075509;28;47231;-74
2022/09/06 04:28:09;;;;;;;;;2.00;2.00;;;;;;;;5075646;27;45363;-74
2022/09/06 04:30:34;;;;;;;;;1.33;1.33;;;;;;;;5075449;27;45276;-74
2022/09/06 04:32:59;;;;;;;;;3.00;3.00;;;;;;;;5075622;27;45454;-74
2022/09/06 04:35:24;;;;;;;;;3.00;1.67;;;;;;;;5075168;28;47148;-75
2022/09/06 04:37:50;;;;;;;;;2.00;2.00;;;;;;;;5075402;28;46128;-74
2022/09/06 04:40:15;;;;;;;;;2.00;2.00;;;;;;;;5075623;27;45336;-75
2022/09/06 04:42:40;;;;;;;;;2.33;1.33;;;;;;;;5075664;27;45427;-75
2022/09/06 04:45:05;;;;;;;;;1.67;1.67;;;;;;;;5074815;27;46439;-75
2022/09/06 04:47:31;;;;;;;;;2.00;2.00;;;;;;;;5075754;28;45318;-75
2022/09/06 04:49:56;;;;;;;;;1.67;1.67;;;;;;;;5075270;28;45466;-75
2022/09/06 04:52:21;;;;;;;;;3.00;3.00;;;;;;;;5075566;28;45339;-74
2022/09/06 04:54:47;;;;;;;;;1.00;1.00;;;;;;;;5075420;27;45476;-75
2022/09/06 04:57:12;;;;;;;;;1.33;1.33;;;;;;;;5076611;27;45399;-74
2022/09/06 04:59:37;;;;;;;;;1.00;1.00;;;;;;;;5078706;27;45525;-74
2022/09/06 05:02:02;;;;;;;;;1.00;1.00;;;;;;;;5079072;27;45436;-74
2022/09/06 05:04:27;;;;;;;;;2.33;1.00;;;;;;;;5078525;27;45401;-75
2022/09/06 05:07:06;;;;;;;;;1.67;1.00;;;;;;;;5078242;27;45308;-75
2022/09/06 05:09:32;;;;;;;;;2.00;2.00;;;;;;;;5078973;27;45582;-75
2022/09/06 05:11:58;;;;;;;;;2.00;2.00;;;;;;;;5078889;27;45368;-74
2022/09/06 05:14:23;;;;;;;;;2.00;2.00;;;;;;;;5078140;27;46098;-74
2022/09/06 05:16:49;;;;;;;;;1.33;1.33;;;;;;;;5078388;27;45296;-74
2022/09/06 05:19:14;;;;;;;;;3.00;3.00;;;;;;;;5078610;27;45295;-73
2022/09/06 05:21:40;;;;;;;;;2.00;2.00;;;;;;;;5078697;27;45323;-75
2022/09/06 05:24:05;;;;;;;;;1.67;1.67;;;;;;;;5078593;27;46425;-75
2022/09/06 05:26:30;;;;;;;;;1.00;1.00;;;;;;;;5078239;27;45441;-74
2022/09/06 05:28:55;;;;;;;;;2.00;2.00;;;;;;;;5078111;27;45555;-74
2022/09/06 05:31:28;;;;;;;;;1.00;1.00;;;;;;;;5078293;27;45455;-75
2022/09/06 05:33:54;;;;;;;;;1.33;1.33;;;;;;;;5078122;27;46039;-75
2022/09/06 05:36:19;;;;;;;;;2.67;2.67;;;;;;;;5077975;27;45343;-75
2022/09/06 05:38:44;;;;;;;;;1.00;1.00;;;;;;;;5078320;27;45792;-74
2022/09/06 05:41:10;;;;;;;;;1.00;1.00;;;;;;;;5078392;27;45341;-74
2022/09/06 05:43:35;;;;;;;;;1.67;1.67;;;;;;;;5077800;27;46384;-75
2022/09/06 05:46:00;;;;;;;;;3.67;2.00;;;;;;;;5078240;28;45191;-75
2022/09/06 05:48:25;;;;;;;;;1.33;1.33;;;;;;;;5078055;27;45285;-75
2022/09/06 05:51:00;;;;;;;;;2.33;2.33;;;;;;;;5078422;28;45442;-75
2022/09/06 05:53:25;;;;;;;;;1.00;1.00;;;;;;;;5077718;27;46423;-74
2022/09/06 05:55:50;;;;;;;;;2.00;2.00;;;;;;;;5077323;27;45303;-75
2022/09/06 05:58:15;;;;;;;;;1.33;1.33;;;;;;;;5078151;27;45405;-74
2022/09/06 06:00:41;;;;;;;;;1.33;1.33;;;;;;;;5077966;27;45389;-75
2022/09/06 06:03:06;;;;;;;;;1.00;1.00;;;;;;;;5077777;27;46686;-75
2022/09/06 06:05:31;;;;;;;;;3.00;2.00;;;;;;;;5077985;27;45418;-74
2022/09/06 06:07:58;;;;;;;;;2.67;2.67;;;;;;;;5076899;27;45332;-74
2022/09/06 06:10:23;;;;;;;;;2.00;2.00;;;;;;;;5077335;28;45471;-75
2022/09/06 06:12:48;;;;;;;;;1.33;1.33;;;;;;;;5077468;27;47173;-74
2022/09/06 06:15:14;;;;;;;;;3.00;1.33;;;;;;;;5077653;27;45309;-74
2022/09/06 06:17:39;;;;;;;;;2.00;2.00;;;;;;;;5077736;27;45339;-75
2022/09/06 06:20:04;;;;;;;;;2.00;2.00;;;;;;;;5077814;27;45213;-74
2022/09/06 06:22:29;;;;;;;;;2.00;2.00;;;;;;;;5077558;28;46858;-75
2022/09/06 06:24:55;;;;;;;;;1.00;1.00;;;;;;;;5077163;27;45516;-74
2022/09/06 06:27:20;;;;;;;;;2.00;2.00;;;;;;;;5077614;27;45394;-74
2022/09/06 06:29:45;;;;;;;;;3.00;1.33;;;;;;;;5077308;27;45572;-74
2022/09/06 06:32:10;;;;;;;;;1.00;1.00;;;;;;;;5077323;27;45383;-75
2022/09/06 06:34:35;;;;;;;;;1.00;1.00;;;;;;;;5077279;27;45363;-74
2022/09/06 06:37:01;;;;;;;;;1.33;1.33;;;;;;;;5077290;28;45427;-75
2022/09/06 06:39:26;;;;;;;;;1.67;1.67;;;;;;;;5077243;27;45476;-74
2022/09/06 06:41:51;;;;;;;;;3.00;2.00;;;;;;;;5077013;27;45500;-74
2022/09/06 06:44:17;;;;;;;;;1.00;1.00;;;;;;;;5077274;27;45408;-74
2022/09/06 06:46:42;;;;;;;;;2.00;2.00;;;;;;;;5077425;27;45293;-77
2022/09/06 06:49:08;;;;;;;;;2.00;2.00;;;;;;;;5077311;27;45411;-74
2022/09/06 06:51:35;;;;;;;;;2.00;2.00;;;;;;;;5076798;27;47065;-83
2022/09/06 06:54:01;;;;;;;;;1.67;1.67;;;;;;;;5065912;27;45357;-83
2022/09/06 06:56:28;;;;;;;;;3.00;3.00;;;;;;;;5057271;28;45376;-81
2022/09/06 06:58:55;;;;;;;;;1.67;1.67;;;;;;;;5064840;27;45448;-81
2022/09/06 07:01:20;;;;;;;;;3.33;3.33;;;;;;;;5061717;27;46336;-80
2022/09/06 07:03:46;;;;;;;;;3.00;3.00;;;;;;;;5060766;27;46260;-82
2022/09/06 07:06:12;;;;;;;;;2.00;2.00;;;;;;;;5064520;27;45661;-81
2022/09/06 07:08:37;;;;;;;;;1.00;1.00;;;;;;;;5058038;27;45851;-83
2022/09/06 07:11:03;;;;;;;;;2.00;2.00;;;;;;;;5073602;28;45517;-89
2022/09/06 07:13:29;;;;;;;;;2.00;1.00;;;;;;;;5076436;27;45586;-84
2022/09/06 07:16:06;;;;;;;;;1.00;1.00;;;;;;;;5076700;27;45417;-83
2022/09/06 07:18:31;;;;;;;;;1.00;1.00;;;;;;;;5076956;28;45257;-84
2022/09/06 07:20:56;;;;;;;;;1.00;1.00;;;;;;;;5075928;27;46212;-75
2022/09/06 07:23:24;;;;;;;;;3.00;2.00;;;;;;;;5076307;27;45255;-75
2022/09/06 07:25:49;;;;;;;;;2.00;2.00;;;;;;;;5076595;27;45295;-74
2022/09/06 07:28:14;;;;;;;;;1.33;1.00;;;;;;;;5076262;27;45367;-75
2022/09/06 07:30:40;;;;;;;;;4.00;3.00;;;;;;;;5076276;27;46169;-74
2022/09/06 07:33:06;;;;;;;;;3.00;3.00;;;;;;;;5076144;27;45341;-73
2022/09/06 07:35:31;;;;;;;;;2.33;2.33;;;;;;;;5076278;27;45398;-76
2022/09/06 07:37:57;;;;;;;;;3.67;3.67;;;;;;;;5076054;28;45359;-74
2022/09/06 07:40:23;;;;;;;;;2.33;2.33;;;;;;;;5076097;27;45932;-74
2022/09/06 07:42:48;;;;;;;;;4.00;3.00;;;;;;;;5076099;27;45400;-81
2022/09/06 07:45:13;;;;;;;;;5.00;4.00;;;;;;;;5076142;27;45322;-74
2022/09/06 07:47:38;;;;;;;;;2.00;2.00;;;;;;;;5076006;28;45320;-74
2022/09/06 07:50:04;;;;;;;;;3.00;3.00;;;;;;;;5075983;27;45387;-74
2022/09/06 07:52:29;;;;;;;;;1.00;1.00;;;;;;;;5075614;27;45563;-74
2022/09/06 07:54:55;;;;;;;;;2.00;2.00;;;;;;;;5076190;27;45473;-73
2022/09/06 07:57:20;;;;;;;;;2.00;2.00;;;;;;;;5075874;28;45514;-73
2022/09/06 07:59:46;;;;;;;;;2.33;2.33;;;;;;;;5075558;28;46155;-74
2022/09/06 08:02:11;;;;;;;;;2.00;2.00;;;;;;;;5076056;27;45522;-74
2022/09/06 08:04:36;;;;;;;;;2.00;2.00;;;;;;;;5075772;27;45494;-73
2022/09/06 08:07:01;;;;;;;;;2.33;1.67;;;;;;;;5075314;27;45242;-75
2022/09/06 08:09:26;;;;;;;;;2.00;2.00;;;;;;;;5076002;27;46154;-73
2022/09/06 08:11:52;;;;;;;;;1.67;1.67;;;;;;;;5075688;28;45284;-74
2022/09/06 08:14:17;;;;;;;;;2.00;2.00;;;;;;;;5075933;27;45333;-74
2022/09/06 08:16:42;;;;;;;;;3.00;3.00;;;;;;;;5075760;28;45526;-74
2022/09/06 08:19:07;;;;;;;;;1.67;1.67;;;;;;;;5075665;28;45515;-75
2022/09/06 08:21:33;;;;;;;;;3.00;3.00;;;;;;;;5075443;27;45274;-74
2022/09/06 08:24:00;;;;;;;;;2.67;2.00;;;;;;;;5075766;27;45330;-74
2022/09/06 08:26:26;;;;;;;;;3.00;2.00;;;;;;;;5075103;27;45526;-73
2022/09/06 08:28:52;;;;;;;;;2.67;2.67;;;;;;;;5075607;28;46418;-74
2022/09/06 08:31:17;;;;;;;;;2.00;2.00;;;;;;;;5076683;27;45461;-75
2022/09/06 08:33:43;;;;;;;;;2.67;2.67;;;;;;;;5082543;27;45469;-74
2022/09/06 08:36:09;;;;;;;;;4.00;2.00;;;;;;;;5081804;28;45363;-74
2022/09/06 08:38:34;;;;;;;;;1.67;1.00;;;;;;;;5082125;27;47156;-75
2022/09/06 08:41:10;;;;;;;;;2.00;2.00;;;;;;;;5082200;27;45331;-74
2022/09/06 08:43:36;;;;;;;;;2.00;2.00;;;;;;;;5082151;27;45318;-74
2022/09/06 08:46:03;;;;;;;;;1.67;1.67;;;;;;;;5082160;27;45281;-74
2022/09/06 08:48:30;;;;;;;;;2.00;2.00;;;;;;;;5081816;27;47171;-73
2022/09/06 08:51:08;;;;;;;;;4.00;3.00;;;;;;;;5081932;27;45299;-74
2022/09/06 08:53:35;;;;;;;;;2.00;2.00;;;;;;;;5081361;27;45437;-73
2022/09/06 08:56:22;;;;;;;;;1.00;1.00;;;;;;;;5081933;27;45295;-73
2022/09/06 08:59:10;;;;;;;;;2.00;2.00;;;;;;;;5081761;27;47179;-74
2022/09/06 09:01:52;;;;;;;;;1.33;1.33;;;;;;;;5081997;27;45388;-74
2022/09/06 09:04:20;;;;;;;;;3.00;3.00;;;;;;;;5081621;27;45414;-74
2022/09/06 09:06:49;;;;;;;;;3.00;3.00;;;;;;;;5082120;28;46539;-74
2022/09/06 09:09:15;;;;;;;;;2.00;1.33;;;;;;;;5081517;27;46146;-73
2022/09/06 09:11:46;;;;;;;;;2.00;2.00;;;;;;;;5081772;27;45331;-74
2022/09/06 09:14:14;;;;;;;;;0.33;0.33;;;;;;;;5082186;27;45355;-74
2022/09/06 09:16:40;;;;;;;;;2.00;1.67;;;;;;;;5081768;27;45491;-74
2022/09/06 09:19:05;;;;;;;;;2.00;2.00;;;;;;;;5081314;27;46223;-74
2022/09/06 09:21:35;;;;;;;;;1.67;1.67;;;;;;;;5081957;27;45347;-73
2022/09/06 09:24:03;;;;;;;;;2.00;2.00;;;;;;;;5082131;27;45336;-73
2022/09/06 09:26:31;;;;;;;;;2.00;2.00;;;;;;;;5081713;27;45525;-74
2022/09/06 09:29:04;;;;;;;;;4.00;2.33;;;;;;;;5081780;27;46420;-74
2022/09/06 09:31:33;;;;;;;;;2.00;2.00;;;;;;;;5081515;27;45333;-73
2022/09/06 09:34:01;;;;;;;;;2.00;2.00;;;;;;;;5081265;27;45340;-73
2022/09/06 09:36:26;;;;;;;;;2.00;2.00;;;;;;;;5081085;27;45392;-74
2022/09/06 09:38:53;;;;;;;;;2.67;1.67;;;;;;;;5081592;27;47503;-74
2022/09/06 09:41:31;;;;;;;;;3.00;3.00;;;;;;;;5080974;27;45459;-74
2022/09/06 09:43:59;;;;;;;;;3.00;2.00;;;;;;;;5078797;28;45443;-74
2022/09/06 09:46:24;;;;;;;;;2.00;2.00;;;;;;;;5077966;27;45379;-74
2022/09/06 09:48:59;;;;;;;;;2.00;2.00;;;;;;;;5077524;28;46323;-75
2022/09/06 09:51:25;;;;;;;;;2.00;2.00;;;;;;;;5078326;27;45325;-74
2022/09/06 09:53:53;;;;;;;;;2.00;2.00;;;;;;;;5077724;27;45404;-74
2022/09/06 09:56:25;;;;;;;;;2.00;2.00;;;;;;;;5078058;27;45428;-73
2022/09/06 09:58:52;;;;;;;;;2.00;1.67;;;;;;;;5059539;28;47312;-74
2022/09/06 10:01:25;;;;;;;;;2.33;2.33;;;;;;;;5059646;28;45530;-74
2022/09/06 10:03:50;;;;;;;;;1.33;1.00;;;;;;;;5077273;27;45525;-75
2022/09/06 10:06:24;;;;;;;;;2.67;2.67;;;;;;;;5078032;27;45395;-74
2022/09/06 10:08:49;;;;;;;;;2.00;2.00;;;;;;;;5077788;27;46224;-74
2022/09/06 10:11:14;;;;;;;;;2.00;1.67;;;;;;;;5077536;27;45527;-74
2022/09/06 10:13:41;;;;;;;;;3.00;1.00;;;;;;;;5077756;27;45766;-74
2022/09/06 10:16:07;;;;;;;;;2.33;2.33;;;;;;;;5077764;28;45493;-73
2022/09/06 10:18:40;;;;;;;;;4.00;1.00;;;;;;;;5077498;27;45347;-73
2022/09/06 10:21:07;;;;;;;;;2.33;2.33;;;;;;;;5077474;27;45668;-74
2022/09/06 10:23:35;;;;;;;;;1.67;1.67;;;;;;;;5077975;27;45489;-74
2022/09/06 10:26:07;;;;;;;;;2.00;2.00;;;;;;;;5077275;27;45323;-74
2022/09/06 10:28:33;;;;;;;;;2.67;2.00;;;;;;;;5077310;28;45384;-74
2022/09/06 10:31:17;;;;;;;;;1.67;1.67;;;;;;;;5077375;27;45495;-74
2022/09/06 10:34:01;;;;;;;;;1.33;1.33;;;;;;;;5064578;28;45489;-74
2022/09/06 10:36:37;;;;;;;;;2.00;2.00;;;;;;;;5077044;27;45343;-74
2022/09/06 10:39:07;;;;;;;;;1.00;1.00;;;;;;;;5077083;27;46411;-75
2022/09/06 10:41:46;;;;;;;;;1.67;1.67;;;;;;;;5077281;27;45383;-74
2022/09/06 10:44:14;;;;;;;;;1.33;1.33;;;;;;;;5077393;28;45369;-74
2022/09/06 10:46:42;;;;;;;;;2.00;2.00;;;;;;;;5076621;27;45511;-74
2022/09/06 10:49:10;;;;;;;;;2.00;2.00;;;;;;;;5077009;27;46237;-74
2022/09/06 10:51:44;;;;;;;;;3.00;3.00;;;;;;;;5076729;27;45324;-74
2022/09/06 10:54:10;;;;;;;;;2.33;2.33;;;;;;;;5076848;27;45503;-74
2022/09/06 10:56:42;;;;;;;;;1.00;1.00;;;;;;;;5076859;28;45354;-74
2022/09/06 10:59:40;;;;;;;;;1.67;1.67;;;;;;;;5076892;27;45569;-74
2022/09/06 11:02:05;;;;;;;;;1.67;1.67;;;;;;;;5013733;28;45388;-74
2022/09/06 11:04:34;;;;;;;;;3.00;2.00;;;;;;;;5052084;28;45668;-74
2022/09/06 11:07:01;;;;;;;;;1.67;1.67;;;;;;;;5054210;28;45634;-74
2022/09/06 11:09:47;;;;;;;;;1.00;1.00;;;;;;;;5054140;28;46496;-73
2022/09/06 11:12:18;;;;;;;;;2.00;2.00;;;;;;;;5053969;28;45522;-74
2022/09/06 11:14:45;;;;;;;;;2.33;2.33;;;;;;;;5053814;28;45531;-74
2022/09/06 11:17:20;;;;;;;;;2.00;2.00;;;;;;;;5053948;28;45353;-74
2022/09/06 11:19:45;;;;;;;;;2.67;2.00;;;;;;;;5053740;28;46834;-74
2022/09/06 11:22:25;;;;;;;;;2.33;2.33;;;;;;;;5054081;28;45506;-73
2022/09/06 11:24:59;;;;;;;;;2.00;2.00;;;;;;;;5054260;28;45618;-73
2022/09/06 11:27:44;;;;;;;;;2.00;2.00;;;;;;;;5053993;28;45396;-74
2022/09/06 11:30:13;;;;;;;;;3.00;2.00;;;;;;;;5053420;28;47280;-74
2022/09/06 11:32:42;;;;;;;;;2.00;2.00;;;;;;;;5036768;28;45672;-74
2022/09/06 11:35:09;;;;;;;;;3.00;3.00;;;;;;;;5053687;28;45315;-74
2022/09/06 11:37:35;;;;;;;;;1.00;1.00;;;;;;;;5064199;28;45544;-75
2022/09/06 11:40:04;;;;;;;;;4.00;2.00;;;;;;;;5093976;27;45416;-74
2022/09/06 11:42:45;;;;;;;;;1.00;1.00;;;;;;;;5096798;27;45433;-74
2022/09/06 11:45:10;;;;;;;;;1.33;1.33;;;;;;;;5096182;27;45357;-74
2022/09/06 11:47:40;;;;;;;;;1.33;1.33;;;;;;;;5096678;27;45346;-74
2022/09/06 11:50:17;;;;;;;;;0.67;0.67;;;;;;;;5096832;27;45613;-74
2022/09/06 11:53:07;;;;;;;;;2.33;2.33;;;;;;;;5096374;27;45164;-74
2022/09/06 11:55:41;;;;;;;;;2.00;2.00;;;;;;;;5096322;27;45455;-74
2022/09/06 11:58:19;;;;;;;;;2.00;2.00;;;;;;;;5096529;27;45366;-73
2022/09/06 12:00:45;;;;;;;;;2.67;2.67;;;;;;;;5096174;27;46731;-74
2022/09/06 12:03:30;;;;;;;;;1.67;1.33;;;;;;;;5088250;27;45319;-74
2022/09/06 12:06:14;;;;;;;;;4.00;2.00;;;;;;;;5074920;28;45430;-74
2022/09/06 12:08:40;;;;;;;;;1.67;1.33;;;;;;;;5075828;27;45458;-74
2022/09/06 12:11:21;;;;;;;;;3.67;1.00;;;;;;;;5075359;27;47103;-74
2022/09/06 12:13:46;;;;;;;;;1.00;1.00;;;;;;;;5075386;28;45380;-74
2022/09/06 12:16:12;;;;;;;;;2.00;2.00;;;;;;;;5075680;27;45359;-73
2022/09/06 12:18:46;;;;;;;;;0.33;0.33;;;;;;;;5076073;28;45379;-75
2022/09/06 12:21:30;;;;;;;;;2.00;2.00;;;;;;;;5075347;27;46495;-74
2022/09/06 12:23:55;;;;;;;;;2.00;2.00;;;;;;;;5075731;27;45675;-74
2022/09/06 12:26:39;;;;;;;;;2.67;1.67;;;;;;;;5075489;27;45284;-74
2022/09/06 12:29:08;;;;;;;;;1.33;1.33;;;;;;;;5075382;28;45574;-75
2022/09/06 12:31:33;;;;;;;;;2.00;2.00;;;;;;;;5075299;28;47179;-74
2022/09/06 12:34:04;;;;;;;;;0.67;0.67;;;;;;;;5075530;27;45430;-74
2022/09/06 12:36:30;;;;;;;;;3.00;2.00;;;;;;;;5074775;28;45351;-74
2022/09/06 12:38:58;;;;;;;;;1.33;1.33;;;;;;;;5075711;27;45570;-74
2022/09/06 12:41:25;;;;;;;;;1.33;1.33;;;;;;;;5075314;27;46196;-74
2022/09/06 12:43:50;;;;;;;;;2.00;2.00;;;;;;;;5074804;28;45388;-74
2022/09/06 12:46:15;;;;;;;;;1.00;1.00;;;;;;;;5075673;28;45355;-74
2022/09/06 12:48:43;;;;;;;;;0.67;0.67;;;;;;;;5075325;27;45454;-74
2022/09/06 12:51:18;;;;;;;;;1.33;1.33;;;;;;;;5075261;28;46945;-74
2022/09/06 12:53:55;;;;;;;;;2.00;1.00;;;;;;;;5070263;27;45500;-74
2022/09/06 12:56:21;;;;;;;;;1.33;1.33;;;;;;;;5066781;28;45487;-74
2022/09/06 12:58:47;;;;;;;;;1.00;1.00;;;;;;;;5075197;28;45454;-73
2022/09/06 13:01:18;;;;;;;;;2.00;2.00;;;;;;;;5075028;27;46858;-74
2022/09/06 13:03:55;;;;;;;;;1.33;1.33;;;;;;;;5074932;27;45653;-74
2022/09/06 13:06:22;;;;;;;;;1.00;1.00;;;;;;;;5075339;27;45403;-74
2022/09/06 13:08:52;;;;;;;;;0.33;0.33;;;;;;;;5075327;28;45497;-73
2022/09/06 13:11:23;;;;;;;;;0.33;0.33;;;;;;;;5074297;28;46265;-73
2022/09/06 13:13:50;;;;;;;;;1.00;1.00;;;;;;;;5075001;27;45494;-74
2022/09/06 13:16:23;;;;;;;;;2.00;1.00;;;;;;;;5074854;28;45407;-74
2022/09/06 13:18:48;;;;;;;;;1.00;1.00;;;;;;;;5077809;27;45281;-73
2022/09/06 13:21:23;;;;;;;;;2.00;2.00;;;;;;;;5078185;27;46228;-74
2022/09/06 13:23:51;;;;;;;;;1.67;1.67;;;;;;;;5068118;27;45459;-74
2022/09/06 13:26:33;;;;;;;;;1.00;1.00;;;;;;;;5074477;27;45494;-74
2022/09/06 13:29:20;;;;;;;;;2.00;2.00;;;;;;;;5078411;27;45535;-74
2022/09/06 13:31:46;;;;;;;;;1.00;1.00;;;;;;;;5077969;27;45303;-74
2022/09/06 13:34:32;;;;;;;;;4.00;1.33;;;;;;;;5078360;27;45380;-74
2022/09/06 13:37:02;;;;;;;;;2.67;2.67;;;;;;;;5077818;28;45292;-74
2022/09/06 13:39:32;;;;;;;;;2.00;2.00;;;;;;;;5078544;27;45281;-73
2022/09/06 13:41:59;;;;;;;;;1.00;1.00;;;;;;;;5077538;27;47140;-74
2022/09/06 13:44:29;;;;;;;;;1.33;1.33;;;;;;;;5078157;28;45313;-74
2022/09/06 13:46:54;;;;;;;;;1.33;1.33;;;;;;;;5078150;27;45370;-73
2022/09/06 13:49:22;;;;;;;;;1.33;1.33;;;;;;;;5078120;27;45392;-74
2022/09/06 13:51:47;;;;;;;;;0.00;0.00;;;;;;;;5077634;27;46206;-74
2022/09/06 13:54:13;;;;;;;;;2.00;2.00;;;;;;;;5077773;27;45304;-74
2022/09/06 13:56:40;;;;;;;;;2.00;2.00;;;;;;;;5077704;27;45488;-73
2022/09/06 13:59:06;;;;;;;;;0.33;0.33;;;;;;;;5077991;27;45380;-74
2022/09/06 14:01:31;;;;;;;;;1.67;1.00;;;;;;;;5077826;27;47111;-73
2022/09/06 14:03:57;;;;;;;;;1.00;1.00;;;;;;;;5077604;27;45397;-73
2022/09/06 14:06:22;;;;;;;;;0.00;0.00;;;;;;;;5077912;27;45454;-75
2022/09/06 14:08:48;;;;;;;;;1.00;1.00;;;;;;;;5077458;27;45409;-74
2022/09/06 14:11:13;;;;;;;;;2.00;2.00;;;;;;;;5077408;27;45641;-73
2022/09/06 14:13:38;;;;;;;;;1.00;1.00;;;;;;;;5077696;27;45364;-75
2022/09/06 14:16:04;;;;;;;;;0.00;0.00;;;;;;;;5077814;27;45217;-75
2022/09/06 14:18:30;;;;;;;;;1.00;1.00;;;;;;;;5077816;27;45621;-74
2022/09/06 14:20:57;;;;;;;;;1.00;1.00;;;;;;;;5077391;27;46178;-74
2022/09/06 14:23:22;;;;;;;;;1.00;1.00;;;;;;;;5077226;28;45251;-74
2022/09/06 14:25:48;;;;;;;;;0.33;0.33;;;;;;;;5077442;27;45217;-74
2022/09/06 14:28:13;;;;;;;;;1.00;1.00;;;;;;;;5071829;27;45372;-74
2022/09/06 14:30:39;;;;;;;;;0.33;0.33;;;;;;;;5076660;27;46456;-74
2022/09/06 14:33:04;;;;;;;;;1.00;1.00;;;;;;;;5077088;27;45319;-74
2022/09/06 14:35:30;;;;;;;;;1.00;1.00;;;;;;;;5077437;27;45561;-74
2022/09/06 14:37:55;;;;;;;;;1.00;1.00;;;;;;;;5076777;27;45431;-74
2022/09/06 14:40:21;;;;;;;;;3.00;1.67;;;;;;;;5077141;27;47096;-74
2022/09/06 14:42:46;;;;;;;;;1.33;1.33;;;;;;;;5077399;27;45346;-73
2022/09/06 14:45:11;;;;;;;;;1.00;1.00;;;;;;;;5076998;27;45525;-73
2022/09/06 14:47:36;;;;;;;;;0.33;0.33;;;;;;;;5077333;27;45383;-74
2022/09/06 14:50:02;;;;;;;;;1.33;1.00;;;;;;;;5077091;27;45663;-73